sensor_id;sensor_type;location;lat;lon;timestamp;pressure;altitude;pressure_sealevel;temperature;humidity
76128;BME280;64873;50.102;14.434;2023-04-21T00:01:00;99392.97;;;9.00;77.95
76128;BME280;64873;50.102;14.434;2023-04-21T00:03:26;99382.09;;;8.95;78.25
76128;BME280;64873;50.102;14.434;2023-04-21T00:05:55;99373.66;;;8.85;78.04
76128;BME280;64873;50.102;14.434;2023-04-21T00:08:23;99396.44;;;8.94;78.03
76128;BME280;64873;50.102;14.434;2023-04-21T00:10:48;99387.41;;;8.95;78.11
76128;BME280;64873;50.102;14.434;2023-04-21T00:13:14;99372.66;;;8.86;78.29
76128;BME280;64873;50.102;14.434;2023-04-21T00:15:39;99367.72;;;8.82;78.49
76128;BME280;64873;50.102;14.434;2023-04-21T00:18:05;99390.88;;;8.75;78.94
76128;BME280;64873;50.102;14.434;2023-04-21T00:20:31;99369.72;;;8.54;79.04
76128;BME280;64873;50.102;14.434;2023-04-21T00:22:57;99378.75;;;8.66;78.95
76128;BME280;64873;50.102;14.434;2023-04-21T00:25:23;99365.13;;;8.35;79.88
76128;BME280;64873;50.102;14.434;2023-04-21T00:27:49;99379.81;;;8.24;80.44
76128;BME280;64873;50.102;14.434;2023-04-21T00:30:14;99379.31;;;8.42;80.03
76128;BME280;64873;50.102;14.434;2023-04-21T00:32:40;99386.38;;;8.21;80.88
76128;BME280;64873;50.102;14.434;2023-04-21T00:35:06;99382.66;;;8.09;81.45
76128;BME280;64873;50.102;14.434;2023-04-21T00:37:31;99392.19;;;7.97;82.09
76128;BME280;64873;50.102;14.434;2023-04-21T00:39:57;99386.66;;;7.92;82.51
76128;BME280;64873;50.102;14.434;2023-04-21T00:42:23;99375.91;;;7.79;82.84
76128;BME280;64873;50.102;14.434;2023-04-21T00:44:48;99384.69;;;8.14;81.26
76128;BME280;64873;50.102;14.434;2023-04-21T00:47:14;99369.97;;;8.18;81.25
76128;BME280;64873;50.102;14.434;2023-04-21T00:49:39;99375.69;;;8.15;80.80
76128;BME280;64873;50.102;14.434;2023-04-21T00:52:05;99368.31;;;8.10;81.32
76128;BME280;64873;50.102;14.434;2023-04-21T00:54:31;99388.31;;;7.99;81.59
76128;BME280;64873;50.102;14.434;2023-04-21T00:56:59;99374.47;;;8.17;81.18
76128;BME280;64873;50.102;14.434;2023-04-21T00:59:25;99381.31;;;8.33;80.89
76128;BME280;64873;50.102;14.434;2023-04-21T01:01:51;99379.06;;;8.37;79.98
76128;BME280;64873;50.102;14.434;2023-04-21T01:04:17;99369.94;;;8.11;80.95
76128;BME280;64873;50.102;14.434;2023-04-21T01:06:43;99375.72;;;8.21;81.02
76128;BME280;64873;50.102;14.434;2023-04-21T01:09:09;99378.97;;;8.10;81.46
76128;BME280;64873;50.102;14.434;2023-04-21T01:11:36;99380.16;;;8.08;81.73
76128;BME280;64873;50.102;14.434;2023-04-21T01:14:03;99378.97;;;8.10;81.58
76128;BME280;64873;50.102;14.434;2023-04-21T01:16:29;99379.06;;;7.89;82.01
76128;BME280;64873;50.102;14.434;2023-04-21T01:18:57;99379.59;;;7.78;82.70
76128;BME280;64873;50.102;14.434;2023-04-21T01:21:23;99362.38;;;7.73;82.70
76128;BME280;64873;50.102;14.434;2023-04-21T01:23:49;99368.47;;;7.67;83.03
76128;BME280;64873;50.102;14.434;2023-04-21T01:26:19;99361.22;;;7.83;82.36
76128;BME280;64873;50.102;14.434;2023-04-21T01:28:46;99367.94;;;7.79;82.69
76128;BME280;64873;50.102;14.434;2023-04-21T01:31:13;99364.03;;;7.74;82.89
76128;BME280;64873;50.102;14.434;2023-04-21T01:33:39;99355.31;;;7.53;83.41
76128;BME280;64873;50.102;14.434;2023-04-21T01:36:05;99364.72;;;7.55;83.61
76128;BME280;64873;50.102;14.434;2023-04-21T01:38:31;99367.91;;;7.72;83.24
76128;BME280;64873;50.102;14.434;2023-04-21T01:40:56;99369.94;;;8.05;82.13
76128;BME280;64873;50.102;14.434;2023-04-21T01:43:23;99376.22;;;7.97;81.53
76128;BME280;64873;50.102;14.434;2023-04-21T01:45:50;99367.38;;;7.90;81.82
76128;BME280;64873;50.102;14.434;2023-04-21T01:48:16;99372.69;;;7.90;81.86
76128;BME280;64873;50.102;14.434;2023-04-21T01:50:41;99371.78;;;7.69;82.12
76128;BME280;64873;50.102;14.434;2023-04-21T01:53:07;99378.50;;;7.65;83.34
76128;BME280;64873;50.102;14.434;2023-04-21T01:55:32;99371.06;;;7.89;82.24
76128;BME280;64873;50.102;14.434;2023-04-21T01:57:58;99367.91;;;7.72;83.03
76128;BME280;64873;50.102;14.434;2023-04-21T02:00:24;99367.38;;;7.55;82.99
76128;BME280;64873;50.102;14.434;2023-04-21T02:02:49;99357.28;;;7.44;83.61
76128;BME280;64873;50.102;14.434;2023-04-21T02:05:15;99364.66;;;7.42;84.04
76128;BME280;64873;50.102;14.434;2023-04-21T02:07:41;99359.84;;;7.31;84.43
76128;BME280;64873;50.102;14.434;2023-04-21T02:10:06;99361.25;;;7.27;84.04
76128;BME280;64873;50.102;14.434;2023-04-21T02:12:32;99356.88;;;7.40;84.11
76128;BME280;64873;50.102;14.434;2023-04-21T02:14:57;99364.69;;;7.48;84.26
76128;BME280;64873;50.102;14.434;2023-04-21T02:17:23;99372.56;;;7.63;83.64
76128;BME280;64873;50.102;14.434;2023-04-21T02:19:48;99356.22;;;7.38;83.21
76128;BME280;64873;50.102;14.434;2023-04-21T02:22:14;99370.94;;;7.62;83.12
76128;BME280;64873;50.102;14.434;2023-04-21T02:24:39;99374.00;;;7.38;83.25
76128;BME280;64873;50.102;14.434;2023-04-21T02:27:05;99369.34;;;7.40;83.68
76128;BME280;64873;50.102;14.434;2023-04-21T02:29:30;99358.09;;;7.44;83.27
76128;BME280;64873;50.102;14.434;2023-04-21T02:31:56;99359.00;;;7.24;83.43
76128;BME280;64873;50.102;14.434;2023-04-21T02:34:21;99366.94;;;7.45;83.84
76128;BME280;64873;50.102;14.434;2023-04-21T02:36:47;99373.66;;;7.41;84.40
76128;BME280;64873;50.102;14.434;2023-04-21T02:39:12;99364.88;;;7.47;83.26
76128;BME280;64873;50.102;14.434;2023-04-21T02:41:41;99372.88;;;7.47;83.12
76128;BME280;64873;50.102;14.434;2023-04-21T02:44:06;99381.38;;;7.36;83.93
76128;BME280;64873;50.102;14.434;2023-04-21T02:46:31;99367.84;;;7.31;83.81
76128;BME280;64873;50.102;14.434;2023-04-21T02:48:57;99363.28;;;7.25;84.26
76128;BME280;64873;50.102;14.434;2023-04-21T02:51:22;99377.34;;;7.18;84.53
76128;BME280;64873;50.102;14.434;2023-04-21T02:53:48;99370.75;;;7.36;84.34
76128;BME280;64873;50.102;14.434;2023-04-21T02:56:13;99367.63;;;7.32;83.50
76128;BME280;64873;50.102;14.434;2023-04-21T02:58:38;99363.91;;;7.27;83.63
76128;BME280;64873;50.102;14.434;2023-04-21T03:01:04;99367.75;;;7.17;84.43
76128;BME280;64873;50.102;14.434;2023-04-21T03:03:31;99362.16;;;7.34;83.55
76128;BME280;64873;50.102;14.434;2023-04-21T03:06:03;99363.56;;;7.08;84.27
76128;BME280;64873;50.102;14.434;2023-04-21T03:08:29;99349.97;;;6.97;84.13
76128;BME280;64873;50.102;14.434;2023-04-21T03:10:55;99364.09;;;7.25;84.40
76128;BME280;64873;50.102;14.434;2023-04-21T03:13:21;99354.81;;;7.14;83.51
76128;BME280;64873;50.102;14.434;2023-04-21T03:15:48;99351.53;;;7.12;83.69
76128;BME280;64873;50.102;14.434;2023-04-21T03:18:14;99358.66;;;7.05;83.83
76128;BME280;64873;50.102;14.434;2023-04-21T03:20:40;99369.22;;;6.99;84.24
76128;BME280;64873;50.102;14.434;2023-04-21T03:23:05;99346.19;;;6.84;84.57
76128;BME280;64873;50.102;14.434;2023-04-21T03:25:30;99349.06;;;6.83;85.05
76128;BME280;64873;50.102;14.434;2023-04-21T03:27:56;99364.69;;;6.92;84.20
76128;BME280;64873;50.102;14.434;2023-04-21T03:30:22;99362.84;;;6.93;84.53
76128;BME280;64873;50.102;14.434;2023-04-21T03:32:51;99352.72;;;6.82;84.58
76128;BME280;64873;50.102;14.434;2023-04-21T03:35:16;99373.09;;;6.75;85.14
76128;BME280;64873;50.102;14.434;2023-04-21T03:37:42;99360.56;;;6.90;85.00
76128;BME280;64873;50.102;14.434;2023-04-21T03:40:07;99364.78;;;6.84;84.57
76128;BME280;64873;50.102;14.434;2023-04-21T03:42:36;99367.25;;;6.86;84.73
76128;BME280;64873;50.102;14.434;2023-04-21T03:45:03;99358.78;;;6.76;84.70
76128;BME280;64873;50.102;14.434;2023-04-21T03:47:30;99373.56;;;6.85;84.74
76128;BME280;64873;50.102;14.434;2023-04-21T03:49:56;99367.03;;;6.81;84.58
76128;BME280;64873;50.102;14.434;2023-04-21T03:52:21;99378.69;;;6.65;85.10
76128;BME280;64873;50.102;14.434;2023-04-21T03:54:47;99366.50;;;6.71;85.12
76128;BME280;64873;50.102;14.434;2023-04-21T03:57:12;99376.59;;;6.60;85.61
76128;BME280;64873;50.102;14.434;2023-04-21T03:59:38;99380.28;;;6.59;85.67
76128;BME280;64873;50.102;14.434;2023-04-21T04:02:03;99366.13;;;6.52;85.58
76128;BME280;64873;50.102;14.434;2023-04-21T04:04:28;99375.31;;;6.56;85.88
76128;BME280;64873;50.102;14.434;2023-04-21T04:06:54;99383.19;;;6.86;85.35
76128;BME280;64873;50.102;14.434;2023-04-21T04:09:20;99381.03;;;6.96;83.70
76128;BME280;64873;50.102;14.434;2023-04-21T04:11:45;99377.34;;;6.97;83.14
76128;BME280;64873;50.102;14.434;2023-04-21T04:14:10;99381.28;;;7.01;83.02
76128;BME280;64873;50.102;14.434;2023-04-21T04:16:36;99384.81;;;7.08;82.99
76128;BME280;64873;50.102;14.434;2023-04-21T04:19:01;99382.00;;;7.10;82.50
76128;BME280;64873;50.102;14.434;2023-04-21T04:21:28;99384.72;;;7.16;81.86
76128;BME280;64873;50.102;14.434;2023-04-21T04:23:53;99368.47;;;7.05;81.80
76128;BME280;64873;50.102;14.434;2023-04-21T04:26:19;99381.91;;;7.03;81.97
76128;BME280;64873;50.102;14.434;2023-04-21T04:28:46;99383.13;;;7.01;82.54
76128;BME280;64873;50.102;14.434;2023-04-21T04:31:12;99364.69;;;6.92;82.11
76128;BME280;64873;50.102;14.434;2023-04-21T04:33:40;99370.28;;;6.83;82.37
76128;BME280;64873;50.102;14.434;2023-04-21T04:36:06;99382.75;;;7.04;82.25
76128;BME280;64873;50.102;14.434;2023-04-21T04:38:32;99382.28;;;7.21;81.42
76128;BME280;64873;50.102;14.434;2023-04-21T04:40:59;99379.09;;;7.33;81.24
76128;BME280;64873;50.102;14.434;2023-04-21T04:43:27;99374.78;;;7.32;80.79
76128;BME280;64873;50.102;14.434;2023-04-21T04:45:52;99379.63;;;7.21;80.99
76128;BME280;64873;50.102;14.434;2023-04-21T04:48:18;99382.63;;;7.40;80.39
76128;BME280;64873;50.102;14.434;2023-04-21T04:50:43;99385.19;;;7.27;80.60
76128;BME280;64873;50.102;14.434;2023-04-21T04:53:09;99374.91;;;7.17;80.91
76128;BME280;64873;50.102;14.434;2023-04-21T04:55:35;99365.94;;;7.25;80.85
76128;BME280;64873;50.102;14.434;2023-04-21T04:58:01;99369.59;;;7.45;80.35
76128;BME280;64873;50.102;14.434;2023-04-21T05:00:27;99377.00;;;7.56;79.32
76128;BME280;64873;50.102;14.434;2023-04-21T05:02:53;99376.25;;;7.62;79.03
76128;BME280;64873;50.102;14.434;2023-04-21T05:05:19;99367.91;;;7.44;79.45
76128;BME280;64873;50.102;14.434;2023-04-21T05:07:46;99378.19;;;7.47;78.98
76128;BME280;64873;50.102;14.434;2023-04-21T05:10:12;99383.09;;;7.50;79.06
76128;BME280;64873;50.102;14.434;2023-04-21T05:12:38;99386.03;;;7.62;78.69
76128;BME280;64873;50.102;14.434;2023-04-21T05:15:04;99377.88;;;7.63;78.91
76128;BME280;64873;50.102;14.434;2023-04-21T05:17:32;99387.31;;;7.66;78.94
76128;BME280;64873;50.102;14.434;2023-04-21T05:19:57;99397.19;;;7.79;78.38
76128;BME280;64873;50.102;14.434;2023-04-21T05:22:23;99392.34;;;7.89;78.03
76128;BME280;64873;50.102;14.434;2023-04-21T05:24:48;99390.41;;;8.04;76.91
76128;BME280;64873;50.102;14.434;2023-04-21T05:27:13;99392.81;;;7.99;77.49
76128;BME280;64873;50.102;14.434;2023-04-21T05:29:39;99390.22;;;8.12;76.63
76128;BME280;64873;50.102;14.434;2023-04-21T05:32:04;99380.59;;;8.11;76.41
76128;BME280;64873;50.102;14.434;2023-04-21T05:34:30;99398.09;;;8.34;75.98
76128;BME280;64873;50.102;14.434;2023-04-21T05:36:56;99388.47;;;8.33;76.16
76128;BME280;64873;50.102;14.434;2023-04-21T05:39:21;99386.25;;;8.36;75.86
76128;BME280;64873;50.102;14.434;2023-04-21T05:41:47;99392.03;;;8.53;75.67
76128;BME280;64873;50.102;14.434;2023-04-21T05:44:12;99387.97;;;8.64;75.27
76128;BME280;64873;50.102;14.434;2023-04-21T05:46:40;99395.75;;;8.65;74.49
76128;BME280;64873;50.102;14.434;2023-04-21T05:49:05;99390.66;;;8.64;74.88
76128;BME280;64873;50.102;14.434;2023-04-21T05:51:30;99378.16;;;8.71;74.57
76128;BME280;64873;50.102;14.434;2023-04-21T05:53:56;99388.44;;;8.87;73.95
76128;BME280;64873;50.102;14.434;2023-04-21T05:56:21;99378.00;;;8.99;73.19
76128;BME280;64873;50.102;14.434;2023-04-21T05:58:47;99388.66;;;8.99;73.25
76128;BME280;64873;50.102;14.434;2023-04-21T06:01:12;99379.63;;;9.06;73.20
76128;BME280;64873;50.102;14.434;2023-04-21T06:03:39;99387.84;;;9.12;73.14
76128;BME280;64873;50.102;14.434;2023-04-21T06:06:05;99385.38;;;9.23;72.93
76128;BME280;64873;50.102;14.434;2023-04-21T06:08:31;99386.59;;;9.41;71.46
76128;BME280;64873;50.102;14.434;2023-04-21T06:10:56;99382.91;;;9.42;71.24
76128;BME280;64873;50.102;14.434;2023-04-21T06:13:22;99389.88;;;9.56;70.24
76128;BME280;64873;50.102;14.434;2023-04-21T06:15:47;99382.06;;;9.61;70.14
76128;BME280;64873;50.102;14.434;2023-04-21T06:18:14;99392.72;;;9.74;69.70
76128;BME280;64873;50.102;14.434;2023-04-21T06:20:40;99388.59;;;9.78;69.67
76128;BME280;64873;50.102;14.434;2023-04-21T06:23:05;99386.94;;;9.84;69.16
76128;BME280;64873;50.102;14.434;2023-04-21T06:25:31;99392.06;;;9.99;68.98
76128;BME280;64873;50.102;14.434;2023-04-21T06:27:56;99386.47;;;10.07;68.57
76128;BME280;64873;50.102;14.434;2023-04-21T06:30:22;99370.63;;;10.12;68.56
76128;BME280;64873;50.102;14.434;2023-04-21T06:32:47;99375.34;;;10.23;68.16
76128;BME280;64873;50.102;14.434;2023-04-21T06:35:13;99377.78;;;10.31;67.68
76128;BME280;64873;50.102;14.434;2023-04-21T06:37:40;99376.50;;;10.40;66.92
76128;BME280;64873;50.102;14.434;2023-04-21T06:40:06;99381.00;;;10.47;67.19
76128;BME280;64873;50.102;14.434;2023-04-21T06:42:32;99356.97;;;10.47;67.02
76128;BME280;64873;50.102;14.434;2023-04-21T06:44:57;99364.47;;;10.63;66.85
76128;BME280;64873;50.102;14.434;2023-04-21T06:47:23;99375.06;;;10.76;66.33
76128;BME280;64873;50.102;14.434;2023-04-21T06:49:48;99375.66;;;10.85;65.87
76128;BME280;64873;50.102;14.434;2023-04-21T06:52:13;99370.44;;;10.90;65.66
76128;BME280;64873;50.102;14.434;2023-04-21T06:54:39;99381.28;;;11.02;64.83
76128;BME280;64873;50.102;14.434;2023-04-21T06:57:04;99380.25;;;11.03;65.00
76128;BME280;64873;50.102;14.434;2023-04-21T06:59:30;99389.41;;;11.13;64.38
76128;BME280;64873;50.102;14.434;2023-04-21T07:01:56;99374.34;;;11.19;64.35
76128;BME280;64873;50.102;14.434;2023-04-21T07:04:21;99383.75;;;11.28;63.68
76128;BME280;64873;50.102;14.434;2023-04-21T07:06:47;99368.00;;;11.20;63.70
76128;BME280;64873;50.102;14.434;2023-04-21T07:09:13;99376.66;;;11.40;63.47
76128;BME280;64873;50.102;14.434;2023-04-21T07:11:38;99377.25;;;11.42;63.37
76128;BME280;64873;50.102;14.434;2023-04-21T07:14:04;99368.47;;;11.35;63.41
76128;BME280;64873;50.102;14.434;2023-04-21T07:16:30;99371.63;;;11.51;63.56
76128;BME280;64873;50.102;14.434;2023-04-21T07:18:56;99368.38;;;11.67;62.88
76128;BME280;64873;50.102;14.434;2023-04-21T07:21:21;99373.06;;;11.71;62.50
76128;BME280;64873;50.102;14.434;2023-04-21T07:23:47;99370.50;;;11.83;62.54
76128;BME280;64873;50.102;14.434;2023-04-21T07:26:12;99370.41;;;11.90;62.39
76128;BME280;64873;50.102;14.434;2023-04-21T07:28:38;99379.06;;;11.92;62.31
76128;BME280;64873;50.102;14.434;2023-04-21T07:31:05;99371.25;;;12.09;61.89
76128;BME280;64873;50.102;14.434;2023-04-21T07:33:30;99376.63;;;12.09;61.98
76128;BME280;64873;50.102;14.434;2023-04-21T07:35:56;99374.38;;;12.06;62.26
76128;BME280;64873;50.102;14.434;2023-04-21T07:38:21;99359.50;;;12.10;61.76
76128;BME280;64873;50.102;14.434;2023-04-21T07:40:47;99377.78;;;12.13;62.10
76128;BME280;64873;50.102;14.434;2023-04-21T07:43:12;99371.25;;;12.27;61.45
76128;BME280;64873;50.102;14.434;2023-04-21T07:45:37;99366.59;;;12.34;61.58
76128;BME280;64873;50.102;14.434;2023-04-21T07:48:03;99366.03;;;12.32;61.49
76128;BME280;64873;50.102;14.434;2023-04-21T07:50:30;99367.34;;;12.41;61.77
76128;BME280;64873;50.102;14.434;2023-04-21T07:52:55;99359.25;;;12.60;61.11
76128;BME280;64873;50.102;14.434;2023-04-21T07:55:21;99373.97;;;12.69;60.95
76128;BME280;64873;50.102;14.434;2023-04-21T07:57:46;99365.41;;;12.78;60.64
76128;BME280;64873;50.102;14.434;2023-04-21T08:00:12;99363.97;;;12.76;60.86
76128;BME280;64873;50.102;14.434;2023-04-21T08:02:38;99356.97;;;12.75;61.00
76128;BME280;64873;50.102;14.434;2023-04-21T08:05:03;99354.69;;;12.90;60.53
76128;BME280;64873;50.102;14.434;2023-04-21T08:07:29;99353.66;;;12.91;60.68
76128;BME280;64873;50.102;14.434;2023-04-21T08:09:55;99363.53;;;13.21;60.34
76128;BME280;64873;50.102;14.434;2023-04-21T08:12:21;99368.25;;;13.19;60.54
76128;BME280;64873;50.102;14.434;2023-04-21T08:14:46;99350.53;;;13.18;60.14
76128;BME280;64873;50.102;14.434;2023-04-21T08:17:12;99353.63;;;13.33;59.68
76128;BME280;64873;50.102;14.434;2023-04-21T08:19:37;99351.75;;;13.45;59.16
76128;BME280;64873;50.102;14.434;2023-04-21T08:22:03;99348.38;;;13.50;58.85
76128;BME280;64873;50.102;14.434;2023-04-21T08:24:53;99344.38;;;13.52;59.11
76128;BME280;64873;50.102;14.434;2023-04-21T08:27:18;99350.56;;;13.65;58.94
76128;BME280;64873;50.102;14.434;2023-04-21T08:29:43;99339.13;;;13.57;58.80
76128;BME280;64873;50.102;14.434;2023-04-21T08:32:09;99350.94;;;13.68;59.04
76128;BME280;64873;50.102;14.434;2023-04-21T08:34:34;99349.41;;;13.84;58.20
76128;BME280;64873;50.102;14.434;2023-04-21T08:37:00;99343.53;;;13.87;58.37
76128;BME280;64873;50.102;14.434;2023-04-21T08:39:25;99344.72;;;13.91;58.16
76128;BME280;64873;50.102;14.434;2023-04-21T08:41:51;99328.69;;;13.96;58.27
76128;BME280;64873;50.102;14.434;2023-04-21T08:44:17;99329.94;;;14.05;57.85
76128;BME280;64873;50.102;14.434;2023-04-21T08:46:55;99332.94;;;14.21;57.73
76128;BME280;64873;50.102;14.434;2023-04-21T08:49:25;99343.91;;;14.31;57.67
76128;BME280;64873;50.102;14.434;2023-04-21T08:51:53;99340.34;;;14.42;57.73
76128;BME280;64873;50.102;14.434;2023-04-21T08:54:19;99333.81;;;14.38;57.55
76128;BME280;64873;50.102;14.434;2023-04-21T08:56:46;99339.75;;;14.52;57.60
76128;BME280;64873;50.102;14.434;2023-04-21T08:59:12;99344.31;;;14.51;57.65
76128;BME280;64873;50.102;14.434;2023-04-21T09:04:30;99336.13;;;14.46;58.05
76128;BME280;64873;50.102;14.434;2023-04-21T09:06:56;99339.63;;;14.75;57.29
76128;BME280;64873;50.102;14.434;2023-04-21T09:09:22;99335.84;;;14.59;57.31
76128;BME280;64873;50.102;14.434;2023-04-21T09:11:57;99340.09;;;14.55;57.61
76128;BME280;64873;50.102;14.434;2023-04-21T09:14:32;99323.81;;;14.62;57.50
76128;BME280;64873;50.102;14.434;2023-04-21T09:17:02;99324.25;;;15.04;56.32
76128;BME280;64873;50.102;14.434;2023-04-21T09:19:28;99329.31;;;15.17;55.74
76128;BME280;64873;50.102;14.434;2023-04-21T09:21:54;99332.81;;;15.01;55.73
76128;BME280;64873;50.102;14.434;2023-04-21T09:24:20;99326.78;;;15.11;55.56
76128;BME280;64873;50.102;14.434;2023-04-21T09:26:50;99334.69;;;15.17;55.49
76128;BME280;64873;50.102;14.434;2023-04-21T09:29:16;99312.75;;;15.09;55.45
76128;BME280;64873;50.102;14.434;2023-04-21T09:31:43;99329.47;;;15.28;55.41
76128;BME280;64873;50.102;14.434;2023-04-21T09:34:20;99313.38;;;15.33;54.84
76128;BME280;64873;50.102;14.434;2023-04-21T09:36:45;99307.84;;;15.39;55.09
76128;BME280;64873;50.102;14.434;2023-04-21T09:39:12;99307.09;;;15.44;54.75
76128;BME280;64873;50.102;14.434;2023-04-21T09:41:37;99302.34;;;15.51;54.58
76128;BME280;64873;50.102;14.434;2023-04-21T09:44:03;99300.47;;;15.90;54.13
76128;BME280;64873;50.102;14.434;2023-04-21T09:46:32;99298.31;;;15.70;54.05
76128;BME280;64873;50.102;14.434;2023-04-21T09:48:59;99298.06;;;15.94;53.70
76128;BME280;64873;50.102;14.434;2023-04-21T09:51:25;99313.13;;;15.90;53.48
76128;BME280;64873;50.102;14.434;2023-04-21T09:53:57;99303.47;;;15.72;53.81
76128;BME280;64873;50.102;14.434;2023-04-21T09:56:24;99302.59;;;15.88;53.89
76128;BME280;64873;50.102;14.434;2023-04-21T09:58:52;99303.28;;;16.00;53.37
76128;BME280;64873;50.102;14.434;2023-04-21T10:01:19;99297.03;;;15.95;53.72
76128;BME280;64873;50.102;14.434;2023-04-21T10:03:46;99301.78;;;16.10;52.20
76128;BME280;64873;50.102;14.434;2023-04-21T10:06:12;99293.13;;;16.08;52.20
76128;BME280;64873;50.102;14.434;2023-04-21T10:08:38;99283.44;;;16.12;51.24
76128;BME280;64873;50.102;14.434;2023-04-21T10:11:04;99281.44;;;16.24;51.27
76128;BME280;64873;50.102;14.434;2023-04-21T10:13:31;99284.22;;;16.07;52.07
76128;BME280;64873;50.102;14.434;2023-04-21T10:16:04;99282.16;;;16.14;51.96
76128;BME280;64873;50.102;14.434;2023-04-21T10:18:37;99285.38;;;15.89;51.88
76128;BME280;64873;50.102;14.434;2023-04-21T10:21:19;99288.38;;;15.93;51.77
76128;BME280;64873;50.102;14.434;2023-04-21T10:23:50;99275.56;;;16.05;51.46
76128;BME280;64873;50.102;14.434;2023-04-21T10:26:25;99268.41;;;16.16;51.07
76128;BME280;64873;50.102;14.434;2023-04-21T10:31:29;99266.59;;;16.48;49.66
76128;BME280;64873;50.102;14.434;2023-04-21T10:36:33;99261.28;;;16.86;47.70
76128;BME280;64873;50.102;14.434;2023-04-21T10:39:00;99267.16;;;16.83;48.47
76128;BME280;64873;50.102;14.434;2023-04-21T10:41:32;99260.78;;;16.89;47.94
76128;BME280;64873;50.102;14.434;2023-04-21T10:43:59;99250.00;;;16.35;48.33
76128;BME280;64873;50.102;14.434;2023-04-21T10:46:35;99254.06;;;16.37;48.68
76128;BME280;64873;50.102;14.434;2023-04-21T10:49:08;99264.50;;;16.29;48.71
76128;BME280;64873;50.102;14.434;2023-04-21T10:54:40;99266.47;;;16.65;47.91
76128;BME280;64873;50.102;14.434;2023-04-21T10:57:08;99263.25;;;16.68;47.29
76128;BME280;64873;50.102;14.434;2023-04-21T10:59:34;99263.75;;;16.60;47.29
76128;BME280;64873;50.102;14.434;2023-04-21T11:02:10;99260.78;;;16.89;46.37
76128;BME280;64873;50.102;14.434;2023-04-21T11:04:36;99258.16;;;17.04;45.89
76128;BME280;64873;50.102;14.434;2023-04-21T11:07:11;99253.06;;;17.50;44.24
76128;BME280;64873;50.102;14.434;2023-04-21T11:09:37;99240.69;;;17.64;43.32
76128;BME280;64873;50.102;14.434;2023-04-21T11:12:09;99237.56;;;17.82;43.15
76128;BME280;64873;50.102;14.434;2023-04-21T11:14:38;99222.47;;;17.97;42.05
76128;BME280;64873;50.102;14.434;2023-04-21T11:17:09;99233.47;;;17.75;41.09
76128;BME280;64873;50.102;14.434;2023-04-21T11:19:35;99241.47;;;17.65;39.91
76128;BME280;64873;50.102;14.434;2023-04-21T11:22:02;99227.16;;;17.59;39.73
76128;BME280;64873;50.102;14.434;2023-04-21T11:24:28;99217.34;;;18.00;39.20
76128;BME280;64873;50.102;14.434;2023-04-21T11:26:53;99223.25;;;17.97;39.51
76128;BME280;64873;50.102;14.434;2023-04-21T11:29:19;99240.25;;;17.77;39.45
76128;BME280;64873;50.102;14.434;2023-04-21T11:31:45;99231.09;;;17.89;39.12
76128;BME280;64873;50.102;14.434;2023-04-21T11:34:14;99224.63;;;17.95;38.41
76128;BME280;64873;50.102;14.434;2023-04-21T11:36:45;99210.00;;;17.91;38.30
76128;BME280;64873;50.102;14.434;2023-04-21T11:39:13;99228.41;;;17.99;39.22
76128;BME280;64873;50.102;14.434;2023-04-21T11:41:44;99218.00;;;17.70;38.83
76128;BME280;64873;50.102;14.434;2023-04-21T11:44:10;99225.91;;;17.72;38.79
76128;BME280;64873;50.102;14.434;2023-04-21T11:46:36;99225.13;;;17.92;38.74
76128;BME280;64873;50.102;14.434;2023-04-21T11:49:06;99230.44;;;17.66;39.33
76128;BME280;64873;50.102;14.434;2023-04-21T11:51:36;99213.22;;;17.82;38.62
76128;BME280;64873;50.102;14.434;2023-04-21T11:54:07;99217.56;;;17.83;38.98
76128;BME280;64873;50.102;14.434;2023-04-21T11:56:37;99215.47;;;18.21;38.33
76128;BME280;64873;50.102;14.434;2023-04-21T11:59:12;99222.50;;;18.27;37.99
76128;BME280;64873;50.102;14.434;2023-04-21T12:01:50;99221.94;;;18.10;38.48
76128;BME280;64873;50.102;14.434;2023-04-21T12:04:25;99232.13;;;17.77;38.82
76128;BME280;64873;50.102;14.434;2023-04-21T12:06:59;99216.97;;;17.76;38.75
76128;BME280;64873;50.102;14.434;2023-04-21T12:09:25;99221.38;;;17.98;38.57
76128;BME280;64873;50.102;14.434;2023-04-21T12:11:53;99227.06;;;18.01;37.39
76128;BME280;64873;50.102;14.434;2023-04-21T12:14:21;99208.13;;;18.11;37.87
76128;BME280;64873;50.102;14.434;2023-04-21T12:16:57;99215.94;;;17.93;37.71
76128;BME280;64873;50.102;14.434;2023-04-21T12:19:38;99214.38;;;18.22;37.70
76128;BME280;64873;50.102;14.434;2023-04-21T12:22:09;99212.47;;;18.07;37.76
76128;BME280;64873;50.102;14.434;2023-04-21T12:24:35;99203.03;;;18.25;37.84
76128;BME280;64873;50.102;14.434;2023-04-21T12:27:01;99223.09;;;18.50;37.47
76128;BME280;64873;50.102;14.434;2023-04-21T12:29:27;99209.56;;;18.29;37.64
76128;BME280;64873;50.102;14.434;2023-04-21T12:31:52;99208.19;;;18.42;37.58
76128;BME280;64873;50.102;14.434;2023-04-21T12:34:18;99215.22;;;18.18;37.68
76128;BME280;64873;50.102;14.434;2023-04-21T12:36:43;99208.44;;;18.15;37.97
76128;BME280;64873;50.102;14.434;2023-04-21T12:39:09;99207.38;;;18.26;37.76
76128;BME280;64873;50.102;14.434;2023-04-21T12:41:35;99208.47;;;18.46;37.00
76128;BME280;64873;50.102;14.434;2023-04-21T12:44:00;99203.63;;;18.53;36.59
76128;BME280;64873;50.102;14.434;2023-04-21T12:46:26;99198.72;;;18.24;37.30
76128;BME280;64873;50.102;14.434;2023-04-21T12:48:52;99200.81;;;17.92;37.54
76128;BME280;64873;50.102;14.434;2023-04-21T12:51:17;99203.03;;;18.25;37.06
76128;BME280;64873;50.102;14.434;2023-04-21T12:53:43;99191.41;;;18.25;36.91
76128;BME280;64873;50.102;14.434;2023-04-21T12:56:09;99200.91;;;18.68;36.27
76128;BME280;64873;50.102;14.434;2023-04-21T12:58:34;99193.84;;;18.36;36.25
76128;BME280;64873;50.102;14.434;2023-04-21T13:01:00;99187.38;;;18.43;36.05
76128;BME280;64873;50.102;14.434;2023-04-21T13:03:25;99184.38;;;18.29;36.37